createdAt,value
2023-03-07T00:00:40.520Z,16.97
2023-03-07T00:04:40.686Z,17.53
2023-03-07T00:08:40.546Z,18.23
2023-03-07T00:12:40.443Z,20.07
2023-03-07T00:16:40.547Z,21.73
2023-03-07T00:20:40.621Z,22.4
2023-03-07T00:24:40.617Z,23.57
2023-03-07T00:28:40.638Z,22.57
2023-03-07T00:32:40.540Z,23.43
2023-03-07T00:36:40.654Z,22.1
2023-03-07T00:40:40.533Z,21.97
2023-03-07T00:44:40.477Z,20.53
2023-03-07T00:48:40.506Z,22.77
2023-03-07T00:52:40.506Z,21.47
2023-03-07T00:56:40.629Z,21.9
2023-03-07T01:00:40.560Z,22.33
2023-03-07T01:04:40.600Z,21.73
2023-03-07T01:08:40.524Z,21.47
2023-03-07T01:12:40.571Z,23.9
2023-03-07T01:16:40.936Z,22
2023-03-07T01:20:40.469Z,21.53
2023-03-07T01:24:40.968Z,21.5
2023-03-07T01:28:40.037Z,21
2023-03-07T01:32:40.964Z,20.37
2023-03-07T01:36:40.388Z,20.8
2023-03-07T01:40:40.534Z,21.03
2023-03-07T01:44:39.678Z,20.5
2023-03-07T01:48:40.763Z,19.37
2023-03-07T01:52:40.509Z,20.7
2023-03-07T01:56:40.622Z,20.63
2023-03-07T02:00:39.306Z,19.93
2023-03-07T02:04:40.475Z,19.17
2023-03-07T02:08:40.519Z,18.73
2023-03-07T02:12:40.915Z,19.13
2023-03-07T02:16:40.746Z,20.3
2023-03-07T02:20:40.857Z,21.1
2023-03-07T02:24:40.466Z,22
2023-03-07T02:28:40.741Z,19.97
2023-03-07T02:32:40.629Z,21
2023-03-07T02:36:40.572Z,22.17
2023-03-07T02:40:40.650Z,22.7
2023-03-07T02:44:40.406Z,23.3
2023-03-07T02:48:40.661Z,21.1
2023-03-07T02:52:40.567Z,17.7
2023-03-07T02:56:40.485Z,21.97
2023-03-07T03:00:40.706Z,20.33
2023-03-07T03:04:40.520Z,22.27
2023-03-07T03:08:40.600Z,21.23
2023-03-07T03:12:40.560Z,21.23
2023-03-07T03:16:40.610Z,21.77
2023-03-07T03:20:40.496Z,21.5
2023-03-07T03:24:40.966Z,23.17
2023-03-07T03:28:40.621Z,22
2023-03-07T03:32:40.739Z,22.53
2023-03-07T03:36:40.477Z,23.13
2023-03-07T03:40:40.579Z,23.2
2023-03-07T03:44:40.482Z,23.1
2023-03-07T03:48:40.556Z,23.83
2023-03-07T03:52:40.296Z,24.63
2023-03-07T03:56:40.518Z,22.43
2023-03-07T04:00:40.605Z,22.9
2023-03-07T04:04:40.665Z,22.93
2023-03-07T04:08:40.520Z,23.8
2023-03-07T04:12:40.540Z,25.57
2023-03-07T04:16:40.616Z,24.6
2023-03-07T04:20:39.875Z,24.23
2023-03-07T04:24:40.703Z,24.5
2023-03-07T04:28:40.525Z,21.8
2023-03-07T04:32:40.690Z,22.63
2023-03-07T04:36:40.453Z,24.7
2023-03-07T04:40:40.537Z,24.6
2023-03-07T04:44:40.638Z,24.53
2023-03-07T04:48:40.482Z,25.23
2023-03-07T04:52:40.871Z,24.57
2023-03-07T04:56:40.582Z,23.5
2023-03-07T05:00:40.651Z,23.3
2023-03-07T05:04:41.022Z,24.37
2023-03-07T05:08:41.041Z,23.23
2023-03-07T05:12:40.861Z,23.27
2023-03-07T05:16:39.573Z,23.07
2023-03-07T05:20:41.126Z,23.57
2023-03-07T05:24:40.493Z,23.23
2023-03-07T05:28:40.645Z,23.63
2023-03-07T05:32:40.623Z,19.47
2023-03-07T05:36:39.808Z,20.8
2023-03-07T05:40:40.750Z,19.93
2023-03-07T05:44:40.549Z,20.77
2023-03-07T05:48:40.863Z,18.5
2023-03-07T05:52:41.012Z,19.33
2023-03-07T05:56:40.448Z,17.53
2023-03-07T06:00:40.488Z,18.5
2023-03-07T06:04:40.407Z,17.93
2023-03-07T06:08:40.542Z,17.1
2023-03-07T06:12:40.523Z,17.6
2023-03-07T06:16:39.985Z,18
2023-03-07T06:20:40.468Z,16.43
2023-03-07T06:24:40.677Z,15.53
2023-03-07T06:28:40.538Z,16.63
2023-03-07T06:32:40.629Z,15.9
2023-03-07T06:36:40.601Z,15.13
2023-03-07T06:40:40.722Z,16.67
2023-03-07T06:44:39.995Z,13.97
2023-03-07T06:48:41.075Z,15.53
2023-03-07T06:52:40.508Z,14.9
2023-03-07T06:56:40.540Z,16.43
2023-03-07T07:00:40.859Z,15.7
2023-03-07T07:04:40.479Z,14.63
2023-03-07T07:08:40.509Z,17
2023-03-07T07:12:40.658Z,15.87
2023-03-07T07:16:40.300Z,16.3
2023-03-07T07:20:40.469Z,18
2023-03-07T07:24:40.516Z,16.97
2023-03-07T07:28:40.583Z,16.67
2023-03-07T07:32:41.381Z,16.9
2023-03-07T07:36:40.561Z,17.33
2023-03-07T07:40:39.945Z,16.93
2023-03-07T07:44:40.923Z,17
2023-03-07T07:48:40.575Z,15.53
2023-03-07T07:52:40.465Z,16.03
2023-03-07T07:56:40.640Z,16.6
2023-03-07T08:00:40.596Z,17.23
2023-03-07T08:04:40.584Z,16.2
2023-03-07T08:08:40.641Z,16.3
2023-03-07T08:12:40.556Z,16.23
2023-03-07T08:16:40.412Z,16.67
2023-03-07T08:20:40.579Z,16.23
2023-03-07T08:24:41.209Z,14.87
2023-03-07T08:28:40.507Z,14.83
2023-03-07T08:32:40.644Z,14.53
2023-03-07T08:36:39.339Z,13.53
2023-03-07T08:40:40.761Z,13.97
2023-03-07T08:44:40.520Z,12.6
2023-03-07T08:48:40.736Z,12.03
2023-03-07T08:52:40.597Z,11.3
2023-03-07T08:56:40.850Z,9.97
2023-03-07T09:00:40.335Z,6.33
2023-03-07T09:04:39.562Z,9.1
2023-03-07T09:08:40.599Z,8.47
2023-03-07T09:12:40.521Z,9.77
2023-03-07T09:16:40.204Z,7.7
2023-03-07T09:20:40.836Z,5.67
2023-03-07T09:24:40.537Z,8.2
2023-03-07T09:28:40.455Z,7.73
2023-03-07T09:32:40.807Z,6.57
2023-03-07T09:36:40.375Z,6.67
2023-03-07T09:40:40.409Z,6.33
2023-03-07T09:44:40.723Z,5.4
2023-03-07T09:48:40.376Z,5.53
2023-03-07T09:52:40.513Z,5.6
2023-03-07T09:56:41.181Z,6.53
2023-03-07T10:00:40.560Z,5.15
2023-03-07T10:04:40.883Z,6.4
2023-03-07T10:08:40.569Z,6.77
2023-03-07T10:12:40.554Z,5.27
2023-03-07T10:16:40.513Z,5.67
2023-03-07T10:20:40.481Z,5
2023-03-07T10:24:40.567Z,3.97
2023-03-07T10:28:42.386Z,5.6
2023-03-07T10:32:39.715Z,5.97
2023-03-07T10:36:41.227Z,5.1
2023-03-07T10:40:40.813Z,5.33
2023-03-07T10:44:40.557Z,4.87
2023-03-07T10:48:40.458Z,4.7
2023-03-07T10:52:40.665Z,6.3
2023-03-07T10:56:40.526Z,6
2023-03-07T11:00:40.697Z,5.93
2023-03-07T11:04:40.512Z,5.03
2023-03-07T11:08:40.499Z,5.33
2023-03-07T11:12:40.588Z,5.27
2023-03-07T11:16:40.371Z,5.7
2023-03-07T11:20:40.265Z,5.8
2023-03-07T11:24:40.531Z,5.6
2023-03-07T11:28:40.491Z,5.63
2023-03-07T11:32:40.807Z,5.47
2023-03-07T11:36:40.555Z,5.2
2023-03-07T11:40:40.655Z,5.4
2023-03-07T11:44:40.538Z,6.03
2023-03-07T11:48:40.469Z,6.4
2023-03-07T11:52:40.592Z,6.7
2023-03-07T11:56:40.241Z,6.67
2023-03-07T12:00:40.721Z,6.6
2023-03-07T12:04:39.894Z,7.43
2023-03-07T12:08:41.179Z,6.47
2023-03-07T12:12:41.150Z,5.22
2023-03-07T12:16:40.565Z,5.68
2023-03-07T12:20:40.587Z,6.43
2023-03-07T12:24:40.655Z,3.9
2023-03-07T12:28:40.769Z,5.07
2023-03-07T12:32:40.870Z,6.68
2023-03-07T12:36:40.706Z,7.05
2023-03-07T12:40:40.921Z,7.18
2023-03-07T12:44:40.941Z,4.87
2023-03-07T12:48:40.700Z,6.93
2023-03-07T12:52:40.879Z,7.32
2023-03-07T12:56:39.514Z,7.4
2023-03-07T13:00:40.786Z,7.23
2023-03-07T13:04:40.834Z,6.43
2023-03-07T13:08:40.568Z,6.87
2023-03-07T13:12:40.582Z,6.53
2023-03-07T13:16:40.656Z,7.4
2023-03-07T13:20:40.628Z,6.3
2023-03-07T13:24:40.361Z,6.7
2023-03-07T13:28:40.470Z,7.83
2023-03-07T13:32:40.126Z,5.6
2023-03-07T13:36:40.555Z,7.1
2023-03-07T13:40:39.970Z,5.82
2023-03-07T13:44:40.518Z,6.33
2023-03-07T13:48:40.424Z,7.72
2023-03-07T13:52:40.720Z,8.9
2023-03-07T13:56:40.549Z,7.13
2023-03-07T14:00:40.748Z,7.7
2023-03-07T14:04:41.230Z,7.23
2023-03-07T14:08:40.482Z,7.67
2023-03-07T14:12:41.067Z,5.3
2023-03-07T14:16:39.611Z,6.87
2023-03-07T14:20:40.599Z,7.43
2023-03-07T14:24:40.823Z,6.03
2023-03-07T14:28:40.627Z,6.63
2023-03-07T14:32:40.779Z,7.9
2023-03-07T14:36:40.674Z,9.07
2023-03-07T14:40:40.876Z,6.87
2023-03-07T14:44:40.575Z,7.7
2023-03-07T14:48:40.899Z,6.8
2023-03-07T14:52:40.658Z,7.93
2023-03-07T14:56:39.586Z,9.27
2023-03-07T15:00:40.813Z,13.67
2023-03-07T15:04:41.081Z,12.3
2023-03-07T15:08:40.681Z,8.6
2023-03-07T15:12:40.000Z,7.47
2023-03-07T15:16:40.449Z,7.73
2023-03-07T15:20:40.534Z,6.53
2023-03-07T15:24:40.575Z,6.83
2023-03-07T15:28:40.574Z,3.37
2023-03-07T15:32:40.667Z,1
2023-03-07T15:36:40.505Z,1.17
2023-03-07T15:40:40.602Z,1.63
2023-03-07T15:44:40.718Z,1.27
2023-03-07T15:48:42.942Z,1.4
2023-03-07T15:52:40.654Z,2.03
2023-03-07T15:56:39.860Z,1.43
2023-03-07T16:00:41.624Z,1.87
2023-03-07T16:04:40.695Z,2.37
2023-03-07T16:08:40.564Z,1.97
2023-03-07T16:12:40.594Z,2.63
2023-03-07T16:16:39.953Z,2.5
2023-03-07T16:20:41.448Z,2.47
2023-03-07T16:24:40.529Z,2.2
2023-03-07T16:28:41.477Z,2.37
2023-03-07T16:32:40.438Z,2.9
2023-03-07T16:36:40.211Z,1.93
2023-03-07T16:40:40.981Z,2.2
2023-03-07T16:44:40.362Z,1.7
2023-03-07T16:48:40.572Z,2.13
2023-03-07T16:52:41.090Z,2.2
2023-03-07T16:56:39.386Z,2.1
2023-03-07T17:00:40.922Z,3.27
2023-03-07T17:04:42.337Z,2.7
2023-03-07T17:08:40.625Z,2.53
2023-03-07T17:12:40.249Z,1.93
2023-03-07T17:16:41.397Z,2.77
2023-03-07T17:20:40.770Z,2.43
2023-03-07T17:24:40.463Z,2.2
2023-03-07T17:28:40.774Z,3.47
2023-03-07T17:32:41.401Z,4.87
2023-03-07T17:36:40.641Z,5.87
2023-03-07T17:40:40.326Z,5.97
2023-03-07T17:44:40.574Z,4.6
2023-03-07T17:48:40.589Z,4.7
2023-03-07T17:52:40.538Z,3.7
2023-03-07T17:56:40.391Z,4.63
2023-03-07T18:00:40.627Z,4.8
2023-03-07T18:04:41.062Z,3.67
2023-03-07T18:08:40.539Z,3.73
2023-03-07T18:12:40.355Z,3
2023-03-07T18:16:41.218Z,3.97
2023-03-07T18:20:40.571Z,3.83
2023-03-07T18:24:40.589Z,3.7
2023-03-07T18:28:40.563Z,4.33
2023-03-07T18:32:40.907Z,4.2
2023-03-07T18:36:40.379Z,3.8
2023-03-07T18:40:40.290Z,3.77
2023-03-07T18:44:40.397Z,4.2
2023-03-07T18:48:40.531Z,3.8
2023-03-07T18:52:40.570Z,3.57
2023-03-07T18:56:41.260Z,4.63
2023-03-07T19:00:40.723Z,3.93
2023-03-07T19:04:40.527Z,3.6
2023-03-07T19:08:40.554Z,3.53
2023-03-07T19:12:40.604Z,3.6
2023-03-07T19:16:40.038Z,3.7
2023-03-07T19:20:41.100Z,3.67
2023-03-07T19:24:40.450Z,3.7
2023-03-07T19:28:40.585Z,3.4
2023-03-07T19:32:41.059Z,3.23
2023-03-07T19:36:40.523Z,3.3
2023-03-07T19:40:40.584Z,3.4
2023-03-07T19:44:40.635Z,2.4
2023-03-07T19:48:40.930Z,3.47
2023-03-07T19:52:40.531Z,3.37
2023-03-07T19:56:41.250Z,3.43
2023-03-07T20:00:40.616Z,3.5
2023-03-07T20:04:40.653Z,3.5
2023-03-07T20:08:40.664Z,3.63
2023-03-07T20:12:40.954Z,3.77
2023-03-07T20:16:40.622Z,3.73
2023-03-07T20:20:40.537Z,4
2023-03-07T20:24:40.617Z,3.9
2023-03-07T20:28:40.658Z,3.9
2023-03-07T20:32:40.489Z,3.87
2023-03-07T20:36:40.579Z,3.93
2023-03-07T20:40:40.397Z,3.57
2023-03-07T20:44:40.548Z,3.83
2023-03-07T20:48:40.483Z,2.03
2023-03-07T20:52:40.492Z,3.23
2023-03-07T20:56:40.569Z,3.63
2023-03-07T21:00:40.543Z,3.03
2023-03-07T21:04:40.730Z,3.2
2023-03-07T21:08:40.542Z,2.77
2023-03-07T21:12:41.173Z,1.7
2023-03-07T21:16:41.144Z,2.93
2023-03-07T21:20:40.957Z,3.3
2023-03-07T21:24:40.709Z,2.07
2023-03-07T21:28:40.769Z,4.1
2023-03-07T21:32:40.847Z,3
2023-03-07T21:36:40.898Z,2.57
2023-03-07T21:40:40.662Z,3.53
2023-03-07T21:44:40.469Z,2.6
2023-03-07T21:48:40.513Z,3.27
2023-03-07T21:52:40.682Z,1.9
2023-03-07T21:56:40.545Z,2.03
2023-03-07T22:00:40.557Z,3.13
2023-03-07T22:04:40.601Z,3.63
2023-03-07T22:08:40.519Z,2.9
2023-03-07T22:12:40.551Z,3.07
2023-03-07T22:16:40.458Z,2.93
2023-03-07T22:20:40.678Z,2.53
2023-03-07T22:24:40.962Z,2.73
2023-03-07T22:28:40.677Z,3.43
2023-03-07T22:32:40.620Z,2.97
2023-03-07T22:36:40.648Z,3.47
2023-03-07T22:40:40.404Z,3.17
2023-03-07T22:44:40.558Z,3.93
2023-03-07T22:48:40.930Z,3.1
2023-03-07T22:52:40.791Z,2.97
2023-03-07T22:56:40.453Z,3.6
2023-03-07T23:00:40.314Z,2.93
2023-03-07T23:04:40.646Z,3.2
2023-03-07T23:08:46.599Z,3.83
2023-03-07T23:12:40.698Z,3.1
2023-03-07T23:16:40.662Z,3.93
2023-03-07T23:20:40.520Z,3.97
2023-03-07T23:24:40.521Z,3.13
2023-03-07T23:28:40.585Z,3.93
2023-03-07T23:32:40.691Z,3.5
2023-03-07T23:36:40.702Z,3.2
2023-03-07T23:40:40.558Z,3.07
2023-03-07T23:44:40.550Z,3.13
2023-03-07T23:48:40.565Z,3.17
2023-03-07T23:52:40.567Z,3.43
2023-03-07T23:56:40.303Z,2.6
